sensor_id;sensor_type;location;lat;lon;timestamp;temperature;humidity
360;DHT22;168;48.872;9.226;2023-02-01T00:02:15;6.00;99.70
360;DHT22;168;48.872;9.226;2023-02-01T00:04:44;5.90;99.80
360;DHT22;168;48.872;9.226;2023-02-01T00:07:11;6.00;99.70
360;DHT22;168;48.872;9.226;2023-02-01T00:09:39;5.90;99.80
360;DHT22;168;48.872;9.226;2023-02-01T00:12:06;5.90;99.90
360;DHT22;168;48.872;9.226;2023-02-01T00:14:34;5.90;99.80
360;DHT22;168;48.872;9.226;2023-02-01T00:17:04;5.80;99.90
360;DHT22;168;48.872;9.226;2023-02-01T00:19:33;5.80;99.90
360;DHT22;168;48.872;9.226;2023-02-01T00:22:02;5.80;99.90
360;DHT22;168;48.872;9.226;2023-02-01T00:24:29;5.80;99.90
360;DHT22;168;48.872;9.226;2023-02-01T00:26:57;5.80;99.90
360;DHT22;168;48.872;9.226;2023-02-01T00:29:24;5.70;99.90
360;DHT22;168;48.872;9.226;2023-02-01T00:31:52;5.80;99.90
360;DHT22;168;48.872;9.226;2023-02-01T00:34:19;5.70;99.90
360;DHT22;168;48.872;9.226;2023-02-01T00:36:47;5.70;99.90
360;DHT22;168;48.872;9.226;2023-02-01T00:39:17;5.60;99.90
360;DHT22;168;48.872;9.226;2023-02-01T00:41:44;5.70;99.90
360;DHT22;168;48.872;9.226;2023-02-01T00:44:11;5.80;99.90
360;DHT22;168;48.872;9.226;2023-02-01T00:46:39;5.80;99.90
360;DHT22;168;48.872;9.226;2023-02-01T00:49:06;5.70;99.90
360;DHT22;168;48.872;9.226;2023-02-01T00:51:35;5.80;99.90
360;DHT22;168;48.872;9.226;2023-02-01T00:54:03;5.70;99.90
360;DHT22;168;48.872;9.226;2023-02-01T00:56:31;5.70;99.90
360;DHT22;168;48.872;9.226;2023-02-01T00:58:59;5.70;99.90
360;DHT22;168;48.872;9.226;2023-02-01T01:01:27;5.60;99.90
360;DHT22;168;48.872;9.226;2023-02-01T01:03:56;5.50;99.90
360;DHT22;168;48.872;9.226;2023-02-01T01:06:26;5.50;99.90
360;DHT22;168;48.872;9.226;2023-02-01T01:08:55;5.30;99.90
360;DHT22;168;48.872;9.226;2023-02-01T01:11:24;5.30;99.90
360;DHT22;168;48.872;9.226;2023-02-01T01:13:55;5.30;99.90
360;DHT22;168;48.872;9.226;2023-02-01T01:16:24;5.30;99.90
360;DHT22;168;48.872;9.226;2023-02-01T01:18:52;5.30;99.90
360;DHT22;168;48.872;9.226;2023-02-01T01:21:19;5.20;99.90
360;DHT22;168;48.872;9.226;2023-02-01T01:23:47;5.30;99.90
360;DHT22;168;48.872;9.226;2023-02-01T01:26:16;5.30;99.90
360;DHT22;168;48.872;9.226;2023-02-01T01:28:45;5.40;99.90
360;DHT22;168;48.872;9.226;2023-02-01T01:31:16;5.50;99.90
360;DHT22;168;48.872;9.226;2023-02-01T01:33:46;5.50;99.90
360;DHT22;168;48.872;9.226;2023-02-01T01:36:14;5.50;99.90
360;DHT22;168;48.872;9.226;2023-02-01T01:38:41;5.50;99.90
360;DHT22;168;48.872;9.226;2023-02-01T01:41:13;5.60;99.90
360;DHT22;168;48.872;9.226;2023-02-01T01:43:55;5.50;99.90
360;DHT22;168;48.872;9.226;2023-02-01T01:46:25;5.60;99.90
360;DHT22;168;48.872;9.226;2023-02-01T01:49:04;5.60;99.90
360;DHT22;168;48.872;9.226;2023-02-01T01:51:36;5.60;99.90
360;DHT22;168;48.872;9.226;2023-02-01T01:54:07;5.70;99.90
360;DHT22;168;48.872;9.226;2023-02-01T01:56:35;5.80;99.90
360;DHT22;168;48.872;9.226;2023-02-01T01:59:04;5.80;99.90
360;DHT22;168;48.872;9.226;2023-02-01T02:01:33;5.80;99.80
360;DHT22;168;48.872;9.226;2023-02-01T02:04:01;5.90;99.80
360;DHT22;168;48.872;9.226;2023-02-01T02:06:39;5.90;99.70
360;DHT22;168;48.872;9.226;2023-02-01T02:09:07;6.00;99.40
360;DHT22;168;48.872;9.226;2023-02-01T02:11:35;6.10;99.40
360;DHT22;168;48.872;9.226;2023-02-01T02:14:05;6.20;99.20
360;DHT22;168;48.872;9.226;2023-02-01T02:16:50;6.20;99.20
360;DHT22;168;48.872;9.226;2023-02-01T02:19:48;6.20;99.20
360;DHT22;168;48.872;9.226;2023-02-01T02:22:42;6.10;99.20
360;DHT22;168;48.872;9.226;2023-02-01T02:28:25;6.10;99.00
360;DHT22;168;48.872;9.226;2023-02-01T02:31:13;6.20;99.00
360;DHT22;168;48.872;9.226;2023-02-01T02:34:00;6.10;99.00
360;DHT22;168;48.872;9.226;2023-02-01T02:36:39;6.20;99.00
360;DHT22;168;48.872;9.226;2023-02-01T02:39:18;6.20;99.00
360;DHT22;168;48.872;9.226;2023-02-01T02:41:53;6.20;99.00
360;DHT22;168;48.872;9.226;2023-02-01T02:44:46;6.20;99.00
360;DHT22;168;48.872;9.226;2023-02-01T02:47:36;6.20;98.90
360;DHT22;168;48.872;9.226;2023-02-01T02:50:17;6.10;99.00
360;DHT22;168;48.872;9.226;2023-02-01T02:53:10;6.20;99.20
360;DHT22;168;48.872;9.226;2023-02-01T02:55:56;6.30;98.70
360;DHT22;168;48.872;9.226;2023-02-01T02:58:43;6.30;98.80
360;DHT22;168;48.872;9.226;2023-02-01T03:01:29;6.30;98.80
360;DHT22;168;48.872;9.226;2023-02-01T03:04:14;6.30;98.80
360;DHT22;168;48.872;9.226;2023-02-01T03:06:45;6.40;98.60
360;DHT22;168;48.872;9.226;2023-02-01T03:09:18;6.30;98.70
360;DHT22;168;48.872;9.226;2023-02-01T03:11:49;6.30;98.90
360;DHT22;168;48.872;9.226;2023-02-01T03:14:36;6.30;98.80
360;DHT22;168;48.872;9.226;2023-02-01T03:17:08;6.40;98.70
360;DHT22;168;48.872;9.226;2023-02-01T03:19:40;6.40;98.70
360;DHT22;168;48.872;9.226;2023-02-01T03:22:17;6.50;98.50
360;DHT22;168;48.872;9.226;2023-02-01T03:24:48;6.40;98.60
360;DHT22;168;48.872;9.226;2023-02-01T03:27:20;6.40;98.60
360;DHT22;168;48.872;9.226;2023-02-01T03:29:51;6.40;98.70
360;DHT22;168;48.872;9.226;2023-02-01T03:32:20;6.40;98.50
360;DHT22;168;48.872;9.226;2023-02-01T03:34:48;6.40;98.70
360;DHT22;168;48.872;9.226;2023-02-01T03:37:22;6.30;98.70
360;DHT22;168;48.872;9.226;2023-02-01T03:39:56;6.30;98.90
360;DHT22;168;48.872;9.226;2023-02-01T03:42:29;6.20;99.00
360;DHT22;168;48.872;9.226;2023-02-01T03:45:03;6.00;99.40
360;DHT22;168;48.872;9.226;2023-02-01T03:47:35;6.00;99.70
360;DHT22;168;48.872;9.226;2023-02-01T03:50:07;6.00;99.60
360;DHT22;168;48.872;9.226;2023-02-01T03:52:39;5.90;99.70
360;DHT22;168;48.872;9.226;2023-02-01T03:55:13;5.90;99.90
360;DHT22;168;48.872;9.226;2023-02-01T03:57:44;6.00;99.80
360;DHT22;168;48.872;9.226;2023-02-01T04:00:18;6.00;99.90
360;DHT22;168;48.872;9.226;2023-02-01T04:02:45;6.00;99.90
360;DHT22;168;48.872;9.226;2023-02-01T04:05:13;6.10;99.80
360;DHT22;168;48.872;9.226;2023-02-01T04:07:42;6.00;99.80
360;DHT22;168;48.872;9.226;2023-02-01T04:10:11;6.10;99.90
360;DHT22;168;48.872;9.226;2023-02-01T04:12:39;6.10;99.60
360;DHT22;168;48.872;9.226;2023-02-01T04:15:08;6.20;99.70
360;DHT22;168;48.872;9.226;2023-02-01T04:17:35;6.20;99.30
360;DHT22;168;48.872;9.226;2023-02-01T04:20:03;6.20;99.20
360;DHT22;168;48.872;9.226;2023-02-01T04:22:31;6.20;99.30
360;DHT22;168;48.872;9.226;2023-02-01T04:25:00;6.10;99.40
360;DHT22;168;48.872;9.226;2023-02-01T04:27:28;6.10;99.40
360;DHT22;168;48.872;9.226;2023-02-01T04:29:55;6.00;99.60
360;DHT22;168;48.872;9.226;2023-02-01T04:32:22;6.00;99.50
360;DHT22;168;48.872;9.226;2023-02-01T04:34:50;6.00;99.60
360;DHT22;168;48.872;9.226;2023-02-01T04:37:17;6.00;99.80
360;DHT22;168;48.872;9.226;2023-02-01T04:39:44;6.00;99.60
360;DHT22;168;48.872;9.226;2023-02-01T04:42:13;6.00;99.80
360;DHT22;168;48.872;9.226;2023-02-01T04:44:40;6.00;99.90
360;DHT22;168;48.872;9.226;2023-02-01T04:47:08;6.20;99.70
360;DHT22;168;48.872;9.226;2023-02-01T04:49:36;6.30;99.20
360;DHT22;168;48.872;9.226;2023-02-01T04:52:04;6.30;99.00
360;DHT22;168;48.872;9.226;2023-02-01T04:54:31;6.30;98.90
360;DHT22;168;48.872;9.226;2023-02-01T04:56:59;6.20;99.00
360;DHT22;168;48.872;9.226;2023-02-01T04:59:27;6.30;99.00
360;DHT22;168;48.872;9.226;2023-02-01T05:01:55;6.30;98.90
360;DHT22;168;48.872;9.226;2023-02-01T05:04:22;6.10;99.20
360;DHT22;168;48.872;9.226;2023-02-01T05:06:49;6.00;99.40
360;DHT22;168;48.872;9.226;2023-02-01T05:09:17;6.00;99.70
360;DHT22;168;48.872;9.226;2023-02-01T05:11:44;6.00;99.70
360;DHT22;168;48.872;9.226;2023-02-01T05:14:30;6.00;99.70
360;DHT22;168;48.872;9.226;2023-02-01T05:16:58;6.10;99.70
360;DHT22;168;48.872;9.226;2023-02-01T05:19:25;6.10;99.50
360;DHT22;168;48.872;9.226;2023-02-01T05:21:52;6.10;99.40
360;DHT22;168;48.872;9.226;2023-02-01T05:24:20;6.10;99.30
360;DHT22;168;48.872;9.226;2023-02-01T05:26:47;6.20;99.70
360;DHT22;168;48.872;9.226;2023-02-01T05:29:16;6.20;99.70
360;DHT22;168;48.872;9.226;2023-02-01T05:31:46;6.10;99.70
360;DHT22;168;48.872;9.226;2023-02-01T05:34:13;6.20;99.80
360;DHT22;168;48.872;9.226;2023-02-01T05:36:41;6.30;99.60
360;DHT22;168;48.872;9.226;2023-02-01T05:39:09;6.20;99.50
360;DHT22;168;48.872;9.226;2023-02-01T05:41:37;6.20;99.50
360;DHT22;168;48.872;9.226;2023-02-01T05:44:04;6.20;99.40
360;DHT22;168;48.872;9.226;2023-02-01T05:46:33;6.30;99.40
360;DHT22;168;48.872;9.226;2023-02-01T05:49:02;6.30;99.30
360;DHT22;168;48.872;9.226;2023-02-01T05:51:30;6.30;99.30
360;DHT22;168;48.872;9.226;2023-02-01T05:53:57;6.40;99.00
360;DHT22;168;48.872;9.226;2023-02-01T05:56:24;6.30;99.00
360;DHT22;168;48.872;9.226;2023-02-01T05:58:52;6.30;99.00
360;DHT22;168;48.872;9.226;2023-02-01T06:01:19;6.30;99.30
360;DHT22;168;48.872;9.226;2023-02-01T06:03:46;6.30;99.20
360;DHT22;168;48.872;9.226;2023-02-01T06:06:15;6.30;98.90
360;DHT22;168;48.872;9.226;2023-02-01T06:08:43;6.40;98.90
360;DHT22;168;48.872;9.226;2023-02-01T06:11:11;6.40;98.80
360;DHT22;168;48.872;9.226;2023-02-01T06:13:39;6.40;98.90
360;DHT22;168;48.872;9.226;2023-02-01T06:16:06;6.30;99.10
360;DHT22;168;48.872;9.226;2023-02-01T06:18:34;6.40;99.20
360;DHT22;168;48.872;9.226;2023-02-01T06:21:02;6.40;99.20
360;DHT22;168;48.872;9.226;2023-02-01T06:23:31;6.40;99.30
360;DHT22;168;48.872;9.226;2023-02-01T06:26:00;6.40;99.40
360;DHT22;168;48.872;9.226;2023-02-01T06:28:27;6.50;99.30
360;DHT22;168;48.872;9.226;2023-02-01T06:30:55;6.50;99.20
360;DHT22;168;48.872;9.226;2023-02-01T06:33:24;6.50;98.90
360;DHT22;168;48.872;9.226;2023-02-01T06:35:57;6.50;99.00
360;DHT22;168;48.872;9.226;2023-02-01T06:38:24;6.50;99.10
360;DHT22;168;48.872;9.226;2023-02-01T06:40:54;6.60;99.00
360;DHT22;168;48.872;9.226;2023-02-01T06:43:23;6.60;99.10
360;DHT22;168;48.872;9.226;2023-02-01T06:45:51;6.60;98.90
360;DHT22;168;48.872;9.226;2023-02-01T06:48:19;6.50;99.10
360;DHT22;168;48.872;9.226;2023-02-01T06:50:46;6.50;99.20
360;DHT22;168;48.872;9.226;2023-02-01T06:53:14;6.50;99.10
360;DHT22;168;48.872;9.226;2023-02-01T06:55:51;6.50;99.10
360;DHT22;168;48.872;9.226;2023-02-01T06:58:20;6.50;99.20
360;DHT22;168;48.872;9.226;2023-02-01T07:00:48;6.50;99.10
360;DHT22;168;48.872;9.226;2023-02-01T07:03:16;6.50;99.20
360;DHT22;168;48.872;9.226;2023-02-01T07:05:43;6.70;98.90
360;DHT22;168;48.872;9.226;2023-02-01T07:08:11;6.70;98.60
360;DHT22;168;48.872;9.226;2023-02-01T07:10:38;6.80;98.30
360;DHT22;168;48.872;9.226;2023-02-01T07:13:06;6.80;98.10
360;DHT22;168;48.872;9.226;2023-02-01T07:15:38;6.70;98.20
360;DHT22;168;48.872;9.226;2023-02-01T07:18:05;6.70;98.10
360;DHT22;168;48.872;9.226;2023-02-01T07:20:35;6.60;98.20
360;DHT22;168;48.872;9.226;2023-02-01T07:23:02;6.60;98.10
360;DHT22;168;48.872;9.226;2023-02-01T07:25:30;6.60;98.00
360;DHT22;168;48.872;9.226;2023-02-01T07:27:57;6.70;97.90
360;DHT22;168;48.872;9.226;2023-02-01T07:30:25;6.70;98.00
360;DHT22;168;48.872;9.226;2023-02-01T07:32:54;6.70;97.60
360;DHT22;168;48.872;9.226;2023-02-01T07:35:25;6.70;97.60
360;DHT22;168;48.872;9.226;2023-02-01T07:37:52;6.70;97.70
360;DHT22;168;48.872;9.226;2023-02-01T07:40:20;6.70;97.70
360;DHT22;168;48.872;9.226;2023-02-01T07:42:54;6.70;97.90
360;DHT22;168;48.872;9.226;2023-02-01T07:45:22;6.70;97.70
360;DHT22;168;48.872;9.226;2023-02-01T07:47:51;6.80;97.40
360;DHT22;168;48.872;9.226;2023-02-01T07:50:21;6.80;97.20
360;DHT22;168;48.872;9.226;2023-02-01T07:52:49;6.90;97.00
360;DHT22;168;48.872;9.226;2023-02-01T07:55:19;6.90;96.90
360;DHT22;168;48.872;9.226;2023-02-01T07:57:53;6.90;96.80
360;DHT22;168;48.872;9.226;2023-02-01T08:00:25;7.00;96.50
360;DHT22;168;48.872;9.226;2023-02-01T08:03:10;6.90;96.50
360;DHT22;168;48.872;9.226;2023-02-01T08:05:39;6.80;97.20
360;DHT22;168;48.872;9.226;2023-02-01T08:08:07;6.80;97.50
360;DHT22;168;48.872;9.226;2023-02-01T08:10:34;6.90;97.20
360;DHT22;168;48.872;9.226;2023-02-01T08:13:02;6.90;96.80
360;DHT22;168;48.872;9.226;2023-02-01T08:15:30;6.90;97.00
360;DHT22;168;48.872;9.226;2023-02-01T08:17:57;6.90;96.80
360;DHT22;168;48.872;9.226;2023-02-01T08:20:25;7.00;96.60
360;DHT22;168;48.872;9.226;2023-02-01T08:22:54;7.00;96.40
360;DHT22;168;48.872;9.226;2023-02-01T08:25:23;7.10;96.50
360;DHT22;168;48.872;9.226;2023-02-01T08:27:51;7.10;96.20
360;DHT22;168;48.872;9.226;2023-02-01T08:30:19;7.20;95.60
360;DHT22;168;48.872;9.226;2023-02-01T08:32:47;7.30;95.40
360;DHT22;168;48.872;9.226;2023-02-01T08:35:15;7.40;95.10
360;DHT22;168;48.872;9.226;2023-02-01T08:37:42;7.50;94.40
360;DHT22;168;48.872;9.226;2023-02-01T08:40:12;7.60;94.00
360;DHT22;168;48.872;9.226;2023-02-01T08:42:39;7.60;93.70
360;DHT22;168;48.872;9.226;2023-02-01T08:45:21;7.60;93.30
360;DHT22;168;48.872;9.226;2023-02-01T08:47:49;7.50;93.70
360;DHT22;168;48.872;9.226;2023-02-01T08:50:17;7.60;93.60
360;DHT22;168;48.872;9.226;2023-02-01T08:52:45;7.50;93.60
360;DHT22;168;48.872;9.226;2023-02-01T08:55:14;7.50;93.70
360;DHT22;168;48.872;9.226;2023-02-01T08:57:42;7.60;93.70
360;DHT22;168;48.872;9.226;2023-02-01T09:00:12;7.60;93.30
360;DHT22;168;48.872;9.226;2023-02-01T09:02:40;7.50;93.20
360;DHT22;168;48.872;9.226;2023-02-01T09:05:08;7.50;93.30
360;DHT22;168;48.872;9.226;2023-02-01T09:07:37;7.50;93.00
360;DHT22;168;48.872;9.226;2023-02-01T09:10:05;7.50;93.00
360;DHT22;168;48.872;9.226;2023-02-01T09:12:35;7.40;93.60
360;DHT22;168;48.872;9.226;2023-02-01T09:15:02;7.40;93.50
360;DHT22;168;48.872;9.226;2023-02-01T09:17:33;7.50;93.70
360;DHT22;168;48.872;9.226;2023-02-01T09:20:01;7.50;94.00
360;DHT22;168;48.872;9.226;2023-02-01T09:25:18;7.20;96.70
360;DHT22;168;48.872;9.226;2023-02-01T09:27:47;7.10;97.90
360;DHT22;168;48.872;9.226;2023-02-01T09:30:15;7.10;98.30
360;DHT22;168;48.872;9.226;2023-02-01T09:32:42;7.00;98.00
360;DHT22;168;48.872;9.226;2023-02-01T09:35:09;7.00;97.70
360;DHT22;168;48.872;9.226;2023-02-01T09:37:40;7.10;97.60
360;DHT22;168;48.872;9.226;2023-02-01T09:40:14;7.20;96.40
360;DHT22;168;48.872;9.226;2023-02-01T09:42:59;7.10;95.90
360;DHT22;168;48.872;9.226;2023-02-01T09:46:02;7.10;95.60
360;DHT22;168;48.872;9.226;2023-02-01T09:48:34;7.10;95.50
360;DHT22;168;48.872;9.226;2023-02-01T09:51:04;7.20;95.10
360;DHT22;168;48.872;9.226;2023-02-01T09:53:36;7.20;94.50
360;DHT22;168;48.872;9.226;2023-02-01T09:56:07;7.20;93.50
360;DHT22;168;48.872;9.226;2023-02-01T09:58:42;7.20;93.30
360;DHT22;168;48.872;9.226;2023-02-01T10:01:15;7.30;93.30
360;DHT22;168;48.872;9.226;2023-02-01T10:03:43;7.30;92.90
360;DHT22;168;48.872;9.226;2023-02-01T10:09:24;7.30;91.90
360;DHT22;168;48.872;9.226;2023-02-01T10:12:31;7.30;92.40
360;DHT22;168;48.872;9.226;2023-02-01T10:15:19;7.40;92.00
360;DHT22;168;48.872;9.226;2023-02-01T10:18:05;7.50;91.70
360;DHT22;168;48.872;9.226;2023-02-01T10:20:45;7.50;91.00
360;DHT22;168;48.872;9.226;2023-02-01T10:23:34;7.50;89.90
360;DHT22;168;48.872;9.226;2023-02-01T10:26:15;7.50;90.10
360;DHT22;168;48.872;9.226;2023-02-01T10:28:48;7.40;90.10
360;DHT22;168;48.872;9.226;2023-02-01T10:31:17;7.40;90.20
360;DHT22;168;48.872;9.226;2023-02-01T10:33:49;7.50;89.90
360;DHT22;168;48.872;9.226;2023-02-01T10:36:23;7.40;89.80
360;DHT22;168;48.872;9.226;2023-02-01T10:38:52;7.40;90.90
360;DHT22;168;48.872;9.226;2023-02-01T10:41:21;7.50;90.90
360;DHT22;168;48.872;9.226;2023-02-01T10:43:52;7.50;90.40
360;DHT22;168;48.872;9.226;2023-02-01T10:46:20;7.50;90.40
360;DHT22;168;48.872;9.226;2023-02-01T10:48:50;7.60;90.80
360;DHT22;168;48.872;9.226;2023-02-01T10:51:22;7.60;91.00
360;DHT22;168;48.872;9.226;2023-02-01T10:53:55;7.60;90.50
360;DHT22;168;48.872;9.226;2023-02-01T10:56:25;7.50;90.70
360;DHT22;168;48.872;9.226;2023-02-01T10:59:00;7.50;90.10
360;DHT22;168;48.872;9.226;2023-02-01T11:01:31;7.40;90.00
360;DHT22;168;48.872;9.226;2023-02-01T11:04:03;7.40;90.10
360;DHT22;168;48.872;9.226;2023-02-01T11:06:33;7.40;90.20
360;DHT22;168;48.872;9.226;2023-02-01T11:09:11;7.40;89.70
360;DHT22;168;48.872;9.226;2023-02-01T11:11:57;7.30;89.90
360;DHT22;168;48.872;9.226;2023-02-01T11:14:35;7.30;90.20
360;DHT22;168;48.872;9.226;2023-02-01T11:17:17;7.30;90.50
360;DHT22;168;48.872;9.226;2023-02-01T11:19:57;7.20;90.20
360;DHT22;168;48.872;9.226;2023-02-01T11:22:25;7.30;90.10
360;DHT22;168;48.872;9.226;2023-02-01T11:24:54;7.30;90.00
360;DHT22;168;48.872;9.226;2023-02-01T11:27:24;7.30;89.90
360;DHT22;168;48.872;9.226;2023-02-01T11:29:55;7.30;89.70
360;DHT22;168;48.872;9.226;2023-02-01T11:32:24;7.30;89.40
360;DHT22;168;48.872;9.226;2023-02-01T11:34:56;7.30;88.90
360;DHT22;168;48.872;9.226;2023-02-01T11:37:26;7.40;89.10
360;DHT22;168;48.872;9.226;2023-02-01T11:39:56;7.50;89.10
360;DHT22;168;48.872;9.226;2023-02-01T11:42:25;7.60;88.40
360;DHT22;168;48.872;9.226;2023-02-01T11:45:17;7.60;87.30
360;DHT22;168;48.872;9.226;2023-02-01T11:47:45;7.50;86.70
360;DHT22;168;48.872;9.226;2023-02-01T11:50:17;7.60;86.90
360;DHT22;168;48.872;9.226;2023-02-01T11:53:02;7.70;86.10
360;DHT22;168;48.872;9.226;2023-02-01T11:55:43;7.70;85.70
360;DHT22;168;48.872;9.226;2023-02-01T11:58:34;7.80;85.70
360;DHT22;168;48.872;9.226;2023-02-01T12:01:24;7.90;85.50
360;DHT22;168;48.872;9.226;2023-02-01T12:07:12;8.00;83.90
360;DHT22;168;48.872;9.226;2023-02-01T12:09:59;8.00;81.70
360;DHT22;168;48.872;9.226;2023-02-01T12:12:38;8.00;81.60
360;DHT22;168;48.872;9.226;2023-02-01T12:15:26;8.00;81.70
360;DHT22;168;48.872;9.226;2023-02-01T12:18:14;7.90;82.00
360;DHT22;168;48.872;9.226;2023-02-01T12:21:04;7.90;81.80
360;DHT22;168;48.872;9.226;2023-02-01T12:23:44;7.80;81.80
360;DHT22;168;48.872;9.226;2023-02-01T12:26:27;7.80;81.90
360;DHT22;168;48.872;9.226;2023-02-01T12:29:19;7.70;82.40
360;DHT22;168;48.872;9.226;2023-02-01T12:35:26;7.60;82.80
360;DHT22;168;48.872;9.226;2023-02-01T12:38:20;7.60;84.00
360;DHT22;168;48.872;9.226;2023-02-01T12:41:11;7.60;83.80
360;DHT22;168;48.872;9.226;2023-02-01T12:43:53;7.60;83.80
360;DHT22;168;48.872;9.226;2023-02-01T12:46:30;7.40;84.90
360;DHT22;168;48.872;9.226;2023-02-01T12:49:14;7.40;86.70
360;DHT22;168;48.872;9.226;2023-02-01T12:54:32;7.20;89.60
360;DHT22;168;48.872;9.226;2023-02-01T12:57:05;7.30;89.10
360;DHT22;168;48.872;9.226;2023-02-01T12:59:37;7.40;89.10
360;DHT22;168;48.872;9.226;2023-02-01T13:02:14;7.30;89.40
360;DHT22;168;48.872;9.226;2023-02-01T13:04:52;7.30;89.30
360;DHT22;168;48.872;9.226;2023-02-01T13:07:23;7.30;89.90
360;DHT22;168;48.872;9.226;2023-02-01T13:09:57;7.40;89.40
360;DHT22;168;48.872;9.226;2023-02-01T13:12:33;7.30;89.60
360;DHT22;168;48.872;9.226;2023-02-01T13:15:09;7.20;89.90
360;DHT22;168;48.872;9.226;2023-02-01T13:17:39;7.00;92.70
360;DHT22;168;48.872;9.226;2023-02-01T13:20:17;6.80;93.60
360;DHT22;168;48.872;9.226;2023-02-01T13:22:49;6.80;94.00
360;DHT22;168;48.872;9.226;2023-02-01T13:25:23;6.80;94.20
360;DHT22;168;48.872;9.226;2023-02-01T13:27:56;6.90;93.90
360;DHT22;168;48.872;9.226;2023-02-01T13:30:30;6.90;93.70
360;DHT22;168;48.872;9.226;2023-02-01T13:33:14;7.10;93.40
360;DHT22;168;48.872;9.226;2023-02-01T13:36:17;7.10;92.30
360;DHT22;168;48.872;9.226;2023-02-01T13:39:43;7.30;91.00
360;DHT22;168;48.872;9.226;2023-02-01T13:42:15;7.30;89.80
360;DHT22;168;48.872;9.226;2023-02-01T13:44:47;7.40;90.00
360;DHT22;168;48.872;9.226;2023-02-01T13:47:24;7.40;89.40
360;DHT22;168;48.872;9.226;2023-02-01T13:49:54;7.50;89.10
360;DHT22;168;48.872;9.226;2023-02-01T13:52:29;7.50;88.00
360;DHT22;168;48.872;9.226;2023-02-01T13:55:13;7.40;88.80
360;DHT22;168;48.872;9.226;2023-02-01T13:57:42;7.60;88.20
360;DHT22;168;48.872;9.226;2023-02-01T14:00:25;7.70;87.70
360;DHT22;168;48.872;9.226;2023-02-01T14:03:09;7.90;86.00
360;DHT22;168;48.872;9.226;2023-02-01T14:06:16;7.90;86.00
360;DHT22;168;48.872;9.226;2023-02-01T14:09:15;7.80;87.00
360;DHT22;168;48.872;9.226;2023-02-01T14:11:46;7.70;87.60
360;DHT22;168;48.872;9.226;2023-02-01T14:14:50;7.60;88.60
360;DHT22;168;48.872;9.226;2023-02-01T14:17:37;7.60;89.30
360;DHT22;168;48.872;9.226;2023-02-01T14:23:21;7.50;89.50
360;DHT22;168;48.872;9.226;2023-02-01T14:26:03;7.40;89.70
360;DHT22;168;48.872;9.226;2023-02-01T14:28:36;7.30;90.00
360;DHT22;168;48.872;9.226;2023-02-01T14:31:16;7.30;90.30
360;DHT22;168;48.872;9.226;2023-02-01T14:33:46;7.30;89.90
360;DHT22;168;48.872;9.226;2023-02-01T14:36:14;7.30;89.60
360;DHT22;168;48.872;9.226;2023-02-01T14:38:48;7.20;90.10
360;DHT22;168;48.872;9.226;2023-02-01T14:41:26;7.20;89.70
360;DHT22;168;48.872;9.226;2023-02-01T14:44:22;7.30;89.60
360;DHT22;168;48.872;9.226;2023-02-01T14:47:25;7.30;88.60
360;DHT22;168;48.872;9.226;2023-02-01T14:50:31;7.30;89.00
360;DHT22;168;48.872;9.226;2023-02-01T14:53:13;7.40;88.70
360;DHT22;168;48.872;9.226;2023-02-01T14:55:43;7.50;88.40
360;DHT22;168;48.872;9.226;2023-02-01T14:58:19;7.50;87.80
360;DHT22;168;48.872;9.226;2023-02-01T15:00:51;7.50;87.50
360;DHT22;168;48.872;9.226;2023-02-01T15:03:48;7.40;87.80
360;DHT22;168;48.872;9.226;2023-02-01T15:06:24;7.30;88.40
360;DHT22;168;48.872;9.226;2023-02-01T15:08:55;7.40;88.50
360;DHT22;168;48.872;9.226;2023-02-01T15:11:23;7.30;87.60
360;DHT22;168;48.872;9.226;2023-02-01T15:13:52;7.20;87.90
360;DHT22;168;48.872;9.226;2023-02-01T15:16:23;7.20;87.50
360;DHT22;168;48.872;9.226;2023-02-01T15:18:51;7.30;87.40
360;DHT22;168;48.872;9.226;2023-02-01T15:21:48;7.30;87.30
360;DHT22;168;48.872;9.226;2023-02-01T15:24:23;7.30;87.20
360;DHT22;168;48.872;9.226;2023-02-01T15:26:53;7.30;86.40
360;DHT22;168;48.872;9.226;2023-02-01T15:29:22;7.30;86.70
360;DHT22;168;48.872;9.226;2023-02-01T15:31:52;7.30;86.30
360;DHT22;168;48.872;9.226;2023-02-01T15:34:20;7.30;86.50
360;DHT22;168;48.872;9.226;2023-02-01T15:37:04;7.30;86.50
360;DHT22;168;48.872;9.226;2023-02-01T15:39:33;7.40;86.50
360;DHT22;168;48.872;9.226;2023-02-01T15:42:10;7.40;86.30
360;DHT22;168;48.872;9.226;2023-02-01T15:44:40;7.40;86.50
360;DHT22;168;48.872;9.226;2023-02-01T15:47:13;7.50;85.60
360;DHT22;168;48.872;9.226;2023-02-01T15:49:44;7.50;85.90
360;DHT22;168;48.872;9.226;2023-02-01T15:52:24;7.50;85.60
360;DHT22;168;48.872;9.226;2023-02-01T15:54:55;7.50;85.30
360;DHT22;168;48.872;9.226;2023-02-01T15:57:26;7.50;85.20
360;DHT22;168;48.872;9.226;2023-02-01T15:59:57;7.50;85.00
360;DHT22;168;48.872;9.226;2023-02-01T16:02:27;7.50;85.90
360;DHT22;168;48.872;9.226;2023-02-01T16:04:54;7.50;85.50
360;DHT22;168;48.872;9.226;2023-02-01T16:07:27;7.50;85.20
360;DHT22;168;48.872;9.226;2023-02-01T16:09:56;7.40;85.30
360;DHT22;168;48.872;9.226;2023-02-01T16:12:34;7.40;85.60
360;DHT22;168;48.872;9.226;2023-02-01T16:15:12;7.40;85.40
360;DHT22;168;48.872;9.226;2023-02-01T16:17:39;7.40;85.60
360;DHT22;168;48.872;9.226;2023-02-01T16:20:07;7.40;85.40
360;DHT22;168;48.872;9.226;2023-02-01T16:22:37;7.40;85.10
360;DHT22;168;48.872;9.226;2023-02-01T16:25:05;7.40;85.00
360;DHT22;168;48.872;9.226;2023-02-01T16:27:33;7.40;85.00
360;DHT22;168;48.872;9.226;2023-02-01T16:30:00;7.40;84.90
360;DHT22;168;48.872;9.226;2023-02-01T16:32:27;7.40;84.80
360;DHT22;168;48.872;9.226;2023-02-01T16:34:56;7.40;84.20
360;DHT22;168;48.872;9.226;2023-02-01T16:37:24;7.50;83.90
360;DHT22;168;48.872;9.226;2023-02-01T16:39:55;7.50;83.80
360;DHT22;168;48.872;9.226;2023-02-01T16:42:22;7.50;83.30
360;DHT22;168;48.872;9.226;2023-02-01T16:44:49;7.50;83.40
360;DHT22;168;48.872;9.226;2023-02-01T16:47:18;7.40;83.90
360;DHT22;168;48.872;9.226;2023-02-01T16:49:46;7.40;84.00
360;DHT22;168;48.872;9.226;2023-02-01T16:52:16;7.30;84.50
360;DHT22;168;48.872;9.226;2023-02-01T16:54:46;7.30;84.50
360;DHT22;168;48.872;9.226;2023-02-01T16:57:16;7.30;85.10
360;DHT22;168;48.872;9.226;2023-02-01T16:59:44;7.30;85.30
360;DHT22;168;48.872;9.226;2023-02-01T17:02:13;7.30;85.50
360;DHT22;168;48.872;9.226;2023-02-01T17:04:41;7.30;85.90
360;DHT22;168;48.872;9.226;2023-02-01T17:07:12;7.30;85.20
360;DHT22;168;48.872;9.226;2023-02-01T17:09:39;7.40;84.90
360;DHT22;168;48.872;9.226;2023-02-01T17:12:23;7.30;84.80
360;DHT22;168;48.872;9.226;2023-02-01T17:14:52;7.20;85.00
360;DHT22;168;48.872;9.226;2023-02-01T17:17:20;7.30;85.20
360;DHT22;168;48.872;9.226;2023-02-01T17:19:50;7.30;85.10
360;DHT22;168;48.872;9.226;2023-02-01T17:22:19;7.30;84.90
360;DHT22;168;48.872;9.226;2023-02-01T17:24:47;7.30;85.10
360;DHT22;168;48.872;9.226;2023-02-01T17:27:16;7.30;84.90
360;DHT22;168;48.872;9.226;2023-02-01T17:29:45;7.30;85.00
360;DHT22;168;48.872;9.226;2023-02-01T17:32:16;7.40;84.70
360;DHT22;168;48.872;9.226;2023-02-01T17:34:44;7.40;84.60
360;DHT22;168;48.872;9.226;2023-02-01T17:37:21;7.50;84.40
360;DHT22;168;48.872;9.226;2023-02-01T17:39:50;7.50;84.60
360;DHT22;168;48.872;9.226;2023-02-01T17:42:24;7.50;84.70
360;DHT22;168;48.872;9.226;2023-02-01T17:44:55;7.40;85.30
360;DHT22;168;48.872;9.226;2023-02-01T17:47:23;7.40;85.20
360;DHT22;168;48.872;9.226;2023-02-01T17:49:50;7.40;85.30
360;DHT22;168;48.872;9.226;2023-02-01T17:52:22;7.40;85.30